sensor_id;sensor_type;location;lat;lon;timestamp;P1;durP1;ratioP1;P2;durP2;ratioP2
7719;SDS011;3902;49.474;8.616;2023-08-06T00:02:04;3.10;;;2.80;;
7719;SDS011;3902;49.474;8.616;2023-08-06T00:04:29;2.80;;;2.50;;
7719;SDS011;3902;49.474;8.616;2023-08-06T00:06:55;3.17;;;2.90;;
7719;SDS011;3902;49.474;8.616;2023-08-06T00:09:21;2.30;;;2.10;;
7719;SDS011;3902;49.474;8.616;2023-08-06T00:11:46;2.60;;;2.40;;
7719;SDS011;3902;49.474;8.616;2023-08-06T00:14:12;2.30;;;2.10;;
7719;SDS011;3902;49.474;8.616;2023-08-06T00:16:40;2.80;;;2.50;;
7719;SDS011;3902;49.474;8.616;2023-08-06T00:19:08;5.07;;;2.67;;
7719;SDS011;3902;49.474;8.616;2023-08-06T00:21:33;2.73;;;2.53;;
7719;SDS011;3902;49.474;8.616;2023-08-06T00:23:59;2.80;;;2.50;;
7719;SDS011;3902;49.474;8.616;2023-08-06T00:26:24;2.70;;;2.40;;
7719;SDS011;3902;49.474;8.616;2023-08-06T00:28:50;2.73;;;2.53;;
7719;SDS011;3902;49.474;8.616;2023-08-06T00:31:15;2.40;;;2.20;;
7719;SDS011;3902;49.474;8.616;2023-08-06T00:33:41;4.50;;;2.80;;
7719;SDS011;3902;49.474;8.616;2023-08-06T00:36:06;3.00;;;2.60;;
7719;SDS011;3902;49.474;8.616;2023-08-06T00:38:32;4.00;;;2.30;;
7719;SDS011;3902;49.474;8.616;2023-08-06T00:40:57;3.17;;;2.70;;
7719;SDS011;3902;49.474;8.616;2023-08-06T00:43:23;3.07;;;2.30;;
7719;SDS011;3902;49.474;8.616;2023-08-06T00:45:48;4.73;;;2.70;;
7719;SDS011;3902;49.474;8.616;2023-08-06T00:48:14;2.90;;;2.70;;
7719;SDS011;3902;49.474;8.616;2023-08-06T00:50:40;2.40;;;2.20;;
7719;SDS011;3902;49.474;8.616;2023-08-06T00:53:06;2.90;;;2.23;;
7719;SDS011;3902;49.474;8.616;2023-08-06T00:55:32;3.50;;;2.57;;
7719;SDS011;3902;49.474;8.616;2023-08-06T00:57:58;2.90;;;2.60;;
7719;SDS011;3902;49.474;8.616;2023-08-06T01:00:24;3.90;;;2.47;;
7719;SDS011;3902;49.474;8.616;2023-08-06T01:02:50;2.70;;;2.50;;
7719;SDS011;3902;49.474;8.616;2023-08-06T01:05:16;2.60;;;2.40;;
7719;SDS011;3902;49.474;8.616;2023-08-06T01:07:55;3.10;;;2.80;;
7719;SDS011;3902;49.474;8.616;2023-08-06T01:13:50;2.43;;;2.23;;
7719;SDS011;3902;49.474;8.616;2023-08-06T01:16:22;3.13;;;2.03;;
7719;SDS011;3902;49.474;8.616;2023-08-06T01:18:49;2.70;;;2.50;;
7719;SDS011;3902;49.474;8.616;2023-08-06T01:21:15;2.40;;;2.20;;
7719;SDS011;3902;49.474;8.616;2023-08-06T01:23:41;3.57;;;2.53;;
7719;SDS011;3902;49.474;8.616;2023-08-06T01:31:27;3.67;;;2.80;;
7719;SDS011;3902;49.474;8.616;2023-08-06T01:33:56;3.50;;;2.67;;
7719;SDS011;3902;49.474;8.616;2023-08-06T01:36:24;2.83;;;2.50;;
7719;SDS011;3902;49.474;8.616;2023-08-06T01:38:51;3.87;;;2.40;;
7719;SDS011;3902;49.474;8.616;2023-08-06T01:41:18;3.77;;;3.20;;
7719;SDS011;3902;49.474;8.616;2023-08-06T01:43:43;2.73;;;2.37;;
7719;SDS011;3902;49.474;8.616;2023-08-06T01:46:09;3.07;;;2.77;;
7719;SDS011;3902;49.474;8.616;2023-08-06T01:48:35;2.67;;;2.20;;
7719;SDS011;3902;49.474;8.616;2023-08-06T01:51:00;2.80;;;2.53;;
7719;SDS011;3902;49.474;8.616;2023-08-06T01:53:26;3.03;;;2.77;;
7719;SDS011;3902;49.474;8.616;2023-08-06T01:55:52;3.70;;;2.70;;
7719;SDS011;3902;49.474;8.616;2023-08-06T01:58:17;2.33;;;2.13;;
7719;SDS011;3902;49.474;8.616;2023-08-06T02:00:43;2.67;;;2.47;;
7719;SDS011;3902;49.474;8.616;2023-08-06T02:03:08;3.43;;;2.33;;
7719;SDS011;3902;49.474;8.616;2023-08-06T02:05:34;2.93;;;2.47;;
7719;SDS011;3902;49.474;8.616;2023-08-06T02:07:59;3.43;;;2.40;;
7719;SDS011;3902;49.474;8.616;2023-08-06T02:10:25;2.50;;;2.30;;
7719;SDS011;3902;49.474;8.616;2023-08-06T02:12:50;2.60;;;2.40;;
7719;SDS011;3902;49.474;8.616;2023-08-06T02:15:16;2.80;;;2.60;;
7719;SDS011;3902;49.474;8.616;2023-08-06T02:17:41;2.53;;;2.33;;
7719;SDS011;3902;49.474;8.616;2023-08-06T02:20:07;3.17;;;2.33;;
7719;SDS011;3902;49.474;8.616;2023-08-06T02:22:33;2.63;;;2.07;;
7719;SDS011;3902;49.474;8.616;2023-08-06T02:24:58;2.60;;;2.40;;
7719;SDS011;3902;49.474;8.616;2023-08-06T02:27:24;2.30;;;2.10;;
7719;SDS011;3902;49.474;8.616;2023-08-06T02:29:50;2.57;;;2.37;;
7719;SDS011;3902;49.474;8.616;2023-08-06T02:32:15;2.70;;;2.20;;
7719;SDS011;3902;49.474;8.616;2023-08-06T02:34:41;2.40;;;2.20;;
7719;SDS011;3902;49.474;8.616;2023-08-06T02:37:06;2.60;;;2.20;;
7719;SDS011;3902;49.474;8.616;2023-08-06T02:39:32;2.93;;;2.40;;
7719;SDS011;3902;49.474;8.616;2023-08-06T02:41:58;6.73;;;2.50;;
7719;SDS011;3902;49.474;8.616;2023-08-06T02:44:26;2.57;;;2.37;;
7719;SDS011;3902;49.474;8.616;2023-08-06T02:46:52;2.67;;;2.40;;
7719;SDS011;3902;49.474;8.616;2023-08-06T02:49:18;2.30;;;2.10;;
7719;SDS011;3902;49.474;8.616;2023-08-06T02:51:46;3.10;;;2.30;;
7719;SDS011;3902;49.474;8.616;2023-08-06T02:54:12;2.77;;;2.00;;
7719;SDS011;3902;49.474;8.616;2023-08-06T02:56:37;2.40;;;2.20;;
7719;SDS011;3902;49.474;8.616;2023-08-06T02:59:03;2.30;;;2.10;;
7719;SDS011;3902;49.474;8.616;2023-08-06T03:01:28;3.27;;;2.67;;
7719;SDS011;3902;49.474;8.616;2023-08-06T03:03:54;2.67;;;2.47;;
7719;SDS011;3902;49.474;8.616;2023-08-06T03:06:20;4.50;;;2.53;;
7719;SDS011;3902;49.474;8.616;2023-08-06T03:08:45;2.37;;;2.17;;
7719;SDS011;3902;49.474;8.616;2023-08-06T03:11:11;2.40;;;2.00;;
7719;SDS011;3902;49.474;8.616;2023-08-06T03:13:36;2.40;;;2.20;;
7719;SDS011;3902;49.474;8.616;2023-08-06T03:16:02;3.43;;;2.60;;
7719;SDS011;3902;49.474;8.616;2023-08-06T03:18:28;2.90;;;2.40;;
7719;SDS011;3902;49.474;8.616;2023-08-06T03:20:54;2.30;;;2.10;;
7719;SDS011;3902;49.474;8.616;2023-08-06T03:23:19;2.50;;;2.30;;
7719;SDS011;3902;49.474;8.616;2023-08-06T03:25:45;2.40;;;2.20;;
7719;SDS011;3902;49.474;8.616;2023-08-06T03:28:11;2.20;;;2.00;;
7719;SDS011;3902;49.474;8.616;2023-08-06T03:30:36;3.43;;;2.30;;
7719;SDS011;3902;49.474;8.616;2023-08-06T03:33:02;2.43;;;2.10;;
7719;SDS011;3902;49.474;8.616;2023-08-06T03:35:28;2.97;;;2.43;;
7719;SDS011;3902;49.474;8.616;2023-08-06T03:37:53;2.50;;;1.93;;
7719;SDS011;3902;49.474;8.616;2023-08-06T03:40:19;2.50;;;2.10;;
7719;SDS011;3902;49.474;8.616;2023-08-06T03:42:44;2.50;;;2.17;;
7719;SDS011;3902;49.474;8.616;2023-08-06T03:45:10;2.33;;;1.90;;
7719;SDS011;3902;49.474;8.616;2023-08-06T03:47:35;3.43;;;2.07;;
7719;SDS011;3902;49.474;8.616;2023-08-06T03:50:01;3.90;;;1.97;;
7719;SDS011;3902;49.474;8.616;2023-08-06T03:52:26;2.70;;;1.83;;
7719;SDS011;3902;49.474;8.616;2023-08-06T03:54:52;2.07;;;1.87;;
7719;SDS011;3902;49.474;8.616;2023-08-06T03:57:17;2.57;;;2.07;;
7719;SDS011;3902;49.474;8.616;2023-08-06T03:59:43;2.50;;;2.00;;
7719;SDS011;3902;49.474;8.616;2023-08-06T04:02:08;2.90;;;2.20;;
7719;SDS011;3902;49.474;8.616;2023-08-06T04:04:34;3.33;;;2.10;;
7719;SDS011;3902;49.474;8.616;2023-08-06T04:06:59;3.00;;;2.47;;
7719;SDS011;3902;49.474;8.616;2023-08-06T04:09:25;3.13;;;2.00;;
7719;SDS011;3902;49.474;8.616;2023-08-06T04:11:52;3.00;;;2.17;;
7719;SDS011;3902;49.474;8.616;2023-08-06T04:14:17;2.93;;;2.20;;
7719;SDS011;3902;49.474;8.616;2023-08-06T04:16:43;4.63;;;2.60;;
7719;SDS011;3902;49.474;8.616;2023-08-06T04:19:08;2.80;;;2.60;;
7719;SDS011;3902;49.474;8.616;2023-08-06T04:21:34;2.60;;;2.40;;
7719;SDS011;3902;49.474;8.616;2023-08-06T04:23:59;2.97;;;2.43;;
7719;SDS011;3902;49.474;8.616;2023-08-06T04:26:25;2.30;;;2.03;;
7719;SDS011;3902;49.474;8.616;2023-08-06T04:28:50;2.30;;;2.10;;
7719;SDS011;3902;49.474;8.616;2023-08-06T04:31:16;4.80;;;2.23;;
7719;SDS011;3902;49.474;8.616;2023-08-06T04:33:42;2.57;;;2.23;;
7719;SDS011;3902;49.474;8.616;2023-08-06T04:36:07;4.93;;;2.37;;
7719;SDS011;3902;49.474;8.616;2023-08-06T04:38:33;2.47;;;1.90;;
7719;SDS011;3902;49.474;8.616;2023-08-06T04:40:59;2.37;;;2.17;;
7719;SDS011;3902;49.474;8.616;2023-08-06T04:43:24;2.80;;;2.30;;
7719;SDS011;3902;49.474;8.616;2023-08-06T04:45:50;2.43;;;2.10;;
7719;SDS011;3902;49.474;8.616;2023-08-06T04:48:18;2.20;;;2.00;;
7719;SDS011;3902;49.474;8.616;2023-08-06T04:50:47;3.23;;;1.90;;
7719;SDS011;3902;49.474;8.616;2023-08-06T04:53:14;2.33;;;2.13;;
7719;SDS011;3902;49.474;8.616;2023-08-06T04:55:40;7.00;;;2.33;;
7719;SDS011;3902;49.474;8.616;2023-08-06T04:58:06;2.47;;;1.60;;
7719;SDS011;3902;49.474;8.616;2023-08-06T05:00:33;3.20;;;1.80;;
7719;SDS011;3902;49.474;8.616;2023-08-06T05:03:01;2.33;;;1.67;;
7719;SDS011;3902;49.474;8.616;2023-08-06T05:05:28;3.60;;;1.73;;
7719;SDS011;3902;49.474;8.616;2023-08-06T05:07:54;2.67;;;1.73;;
7719;SDS011;3902;49.474;8.616;2023-08-06T05:10:20;3.17;;;1.63;;
7719;SDS011;3902;49.474;8.616;2023-08-06T05:12:46;2.23;;;1.50;;
7719;SDS011;3902;49.474;8.616;2023-08-06T05:15:12;1.80;;;1.50;;
7719;SDS011;3902;49.474;8.616;2023-08-06T05:17:37;2.63;;;1.73;;
7719;SDS011;3902;49.474;8.616;2023-08-06T05:20:03;2.30;;;1.67;;
7719;SDS011;3902;49.474;8.616;2023-08-06T05:22:29;3.47;;;1.43;;
7719;SDS011;3902;49.474;8.616;2023-08-06T05:24:54;3.03;;;1.23;;
7719;SDS011;3902;49.474;8.616;2023-08-06T05:27:20;2.20;;;1.67;;
7719;SDS011;3902;49.474;8.616;2023-08-06T05:29:45;4.60;;;1.50;;
7719;SDS011;3902;49.474;8.616;2023-08-06T05:32:12;4.13;;;1.50;;
7719;SDS011;3902;49.474;8.616;2023-08-06T05:34:38;2.60;;;1.73;;
7719;SDS011;3902;49.474;8.616;2023-08-06T05:37:04;2.53;;;1.40;;
7719;SDS011;3902;49.474;8.616;2023-08-06T05:39:29;2.50;;;1.30;;
7719;SDS011;3902;49.474;8.616;2023-08-06T05:41:55;5.03;;;1.40;;
7719;SDS011;3902;49.474;8.616;2023-08-06T05:44:21;2.30;;;1.50;;
7719;SDS011;3902;49.474;8.616;2023-08-06T05:46:48;4.43;;;1.43;;
7719;SDS011;3902;49.474;8.616;2023-08-06T05:49:14;3.37;;;2.10;;
7719;SDS011;3902;49.474;8.616;2023-08-06T05:51:40;3.50;;;1.70;;
7719;SDS011;3902;49.474;8.616;2023-08-06T05:54:06;3.30;;;1.40;;
7719;SDS011;3902;49.474;8.616;2023-08-06T05:56:32;4.20;;;1.97;;
7719;SDS011;3902;49.474;8.616;2023-08-06T05:58:57;4.57;;;1.80;;
7719;SDS011;3902;49.474;8.616;2023-08-06T06:01:23;3.57;;;1.80;;
7719;SDS011;3902;49.474;8.616;2023-08-06T06:03:48;2.87;;;1.50;;
7719;SDS011;3902;49.474;8.616;2023-08-06T06:06:14;2.23;;;1.60;;
7719;SDS011;3902;49.474;8.616;2023-08-06T06:08:39;5.60;;;1.50;;
7719;SDS011;3902;49.474;8.616;2023-08-06T06:11:05;3.87;;;1.90;;
7719;SDS011;3902;49.474;8.616;2023-08-06T06:13:30;6.03;;;1.90;;
7719;SDS011;3902;49.474;8.616;2023-08-06T06:15:56;5.10;;;2.30;;
7719;SDS011;3902;49.474;8.616;2023-08-06T06:18:21;3.33;;;1.63;;
7719;SDS011;3902;49.474;8.616;2023-08-06T06:20:47;2.83;;;1.70;;
7719;SDS011;3902;49.474;8.616;2023-08-06T06:23:13;6.07;;;1.80;;
7719;SDS011;3902;49.474;8.616;2023-08-06T06:25:48;4.50;;;1.90;;
7719;SDS011;3902;49.474;8.616;2023-08-06T06:28:18;3.30;;;1.60;;
7719;SDS011;3902;49.474;8.616;2023-08-06T06:30:44;3.37;;;1.57;;
7719;SDS011;3902;49.474;8.616;2023-08-06T06:33:09;3.17;;;1.70;;
7719;SDS011;3902;49.474;8.616;2023-08-06T06:35:35;2.70;;;1.33;;
7719;SDS011;3902;49.474;8.616;2023-08-06T06:38:01;5.60;;;1.70;;
7719;SDS011;3902;49.474;8.616;2023-08-06T06:40:27;2.87;;;1.37;;
7719;SDS011;3902;49.474;8.616;2023-08-06T06:42:53;3.40;;;1.80;;
7719;SDS011;3902;49.474;8.616;2023-08-06T06:45:18;1.97;;;1.30;;
7719;SDS011;3902;49.474;8.616;2023-08-06T06:47:44;1.80;;;1.40;;
7719;SDS011;3902;49.474;8.616;2023-08-06T06:50:09;1.57;;;1.40;;
7719;SDS011;3902;49.474;8.616;2023-08-06T06:52:35;2.60;;;1.33;;
7719;SDS011;3902;49.474;8.616;2023-08-06T06:55:00;3.87;;;1.30;;
7719;SDS011;3902;49.474;8.616;2023-08-06T06:57:26;1.57;;;1.40;;
7719;SDS011;3902;49.474;8.616;2023-08-06T06:59:51;3.80;;;1.50;;
7719;SDS011;3902;49.474;8.616;2023-08-06T07:02:17;2.70;;;1.20;;
7719;SDS011;3902;49.474;8.616;2023-08-06T07:04:42;1.63;;;1.10;;
7719;SDS011;3902;49.474;8.616;2023-08-06T07:07:08;1.50;;;1.10;;
7719;SDS011;3902;49.474;8.616;2023-08-06T07:09:34;3.27;;;1.30;;
7719;SDS011;3902;49.474;8.616;2023-08-06T07:12:00;1.60;;;1.20;;
7719;SDS011;3902;49.474;8.616;2023-08-06T07:14:26;2.93;;;1.30;;
7719;SDS011;3902;49.474;8.616;2023-08-06T07:16:53;1.30;;;1.20;;
7719;SDS011;3902;49.474;8.616;2023-08-06T07:19:18;1.93;;;1.33;;
7719;SDS011;3902;49.474;8.616;2023-08-06T07:21:44;1.83;;;1.10;;
7719;SDS011;3902;49.474;8.616;2023-08-06T07:24:10;2.30;;;1.30;;
7719;SDS011;3902;49.474;8.616;2023-08-06T07:26:36;1.70;;;1.07;;
7719;SDS011;3902;49.474;8.616;2023-08-06T07:29:01;1.57;;;1.20;;
7719;SDS011;3902;49.474;8.616;2023-08-06T07:31:27;1.40;;;0.93;;
7719;SDS011;3902;49.474;8.616;2023-08-06T07:33:52;1.43;;;1.17;;
7719;SDS011;3902;49.474;8.616;2023-08-06T07:36:18;2.80;;;1.27;;
7719;SDS011;3902;49.474;8.616;2023-08-06T07:38:43;1.87;;;1.10;;
7719;SDS011;3902;49.474;8.616;2023-08-06T07:41:09;1.00;;;0.90;;
7719;SDS011;3902;49.474;8.616;2023-08-06T07:43:35;2.50;;;1.17;;
7719;SDS011;3902;49.474;8.616;2023-08-06T07:46:01;1.73;;;1.00;;
7719;SDS011;3902;49.474;8.616;2023-08-06T07:48:27;2.87;;;0.97;;
7719;SDS011;3902;49.474;8.616;2023-08-06T07:50:55;2.07;;;1.10;;
7719;SDS011;3902;49.474;8.616;2023-08-06T07:53:22;2.00;;;1.00;;
7719;SDS011;3902;49.474;8.616;2023-08-06T07:55:52;1.73;;;0.90;;
7719;SDS011;3902;49.474;8.616;2023-08-06T07:58:19;1.10;;;1.00;;
7719;SDS011;3902;49.474;8.616;2023-08-06T08:00:45;1.30;;;0.90;;
7719;SDS011;3902;49.474;8.616;2023-08-06T08:03:14;1.40;;;0.93;;
7719;SDS011;3902;49.474;8.616;2023-08-06T08:05:41;1.10;;;1.00;;
7719;SDS011;3902;49.474;8.616;2023-08-06T08:08:07;1.33;;;1.10;;
7719;SDS011;3902;49.474;8.616;2023-08-06T08:10:33;1.33;;;0.90;;
7719;SDS011;3902;49.474;8.616;2023-08-06T08:12:59;1.53;;;1.00;;
7719;SDS011;3902;49.474;8.616;2023-08-06T08:15:29;3.53;;;0.90;;
7719;SDS011;3902;49.474;8.616;2023-08-06T08:17:58;0.97;;;0.87;;
7719;SDS011;3902;49.474;8.616;2023-08-06T08:20:23;1.10;;;1.00;;
7719;SDS011;3902;49.474;8.616;2023-08-06T08:22:49;1.73;;;1.07;;
7719;SDS011;3902;49.474;8.616;2023-08-06T08:25:16;2.43;;;0.90;;
7719;SDS011;3902;49.474;8.616;2023-08-06T08:27:41;0.90;;;0.80;;
7719;SDS011;3902;49.474;8.616;2023-08-06T08:30:07;1.23;;;1.00;;
7719;SDS011;3902;49.474;8.616;2023-08-06T08:32:33;0.90;;;0.80;;
7719;SDS011;3902;49.474;8.616;2023-08-06T08:34:58;1.20;;;0.90;;
7719;SDS011;3902;49.474;8.616;2023-08-06T08:37:24;1.00;;;0.90;;
7719;SDS011;3902;49.474;8.616;2023-08-06T08:39:49;1.20;;;1.10;;
7719;SDS011;3902;49.474;8.616;2023-08-06T08:42:15;1.20;;;0.93;;
7719;SDS011;3902;49.474;8.616;2023-08-06T08:44:41;1.00;;;0.90;;
7719;SDS011;3902;49.474;8.616;2023-08-06T08:47:07;1.80;;;0.80;;
7719;SDS011;3902;49.474;8.616;2023-08-06T08:49:37;1.63;;;1.00;;
7719;SDS011;3902;49.474;8.616;2023-08-06T08:52:03;1.00;;;0.90;;
7719;SDS011;3902;49.474;8.616;2023-08-06T08:54:37;1.73;;;0.80;;
7719;SDS011;3902;49.474;8.616;2023-08-06T08:57:04;1.30;;;1.20;;
7719;SDS011;3902;49.474;8.616;2023-08-06T08:59:32;1.03;;;0.90;;
7719;SDS011;3902;49.474;8.616;2023-08-06T09:01:58;0.90;;;0.90;;
7719;SDS011;3902;49.474;8.616;2023-08-06T09:04:26;0.90;;;0.80;;
7719;SDS011;3902;49.474;8.616;2023-08-06T09:06:53;1.77;;;1.00;;
7719;SDS011;3902;49.474;8.616;2023-08-06T09:09:22;1.10;;;1.00;;
7719;SDS011;3902;49.474;8.616;2023-08-06T09:11:51;0.97;;;0.90;;
7719;SDS011;3902;49.474;8.616;2023-08-06T09:14:20;1.00;;;0.90;;
7719;SDS011;3902;49.474;8.616;2023-08-06T09:16:46;1.00;;;0.90;;
7719;SDS011;3902;49.474;8.616;2023-08-06T09:19:12;2.13;;;1.10;;
7719;SDS011;3902;49.474;8.616;2023-08-06T09:21:40;1.10;;;0.97;;
7719;SDS011;3902;49.474;8.616;2023-08-06T09:24:09;1.33;;;1.00;;
7719;SDS011;3902;49.474;8.616;2023-08-06T09:26:43;1.20;;;1.00;;
7719;SDS011;3902;49.474;8.616;2023-08-06T09:29:09;0.93;;;0.80;;
7719;SDS011;3902;49.474;8.616;2023-08-06T09:31:43;1.00;;;0.90;;
7719;SDS011;3902;49.474;8.616;2023-08-06T09:34:19;1.10;;;1.00;;
7719;SDS011;3902;49.474;8.616;2023-08-06T09:36:47;1.27;;;0.80;;
7719;SDS011;3902;49.474;8.616;2023-08-06T09:39:16;2.23;;;0.90;;
7719;SDS011;3902;49.474;8.616;2023-08-06T09:41:43;1.10;;;1.00;;
7719;SDS011;3902;49.474;8.616;2023-08-06T09:44:18;1.60;;;1.00;;
7719;SDS011;3902;49.474;8.616;2023-08-06T09:46:47;1.87;;;0.97;;
7719;SDS011;3902;49.474;8.616;2023-08-06T09:49:18;1.00;;;0.90;;
7719;SDS011;3902;49.474;8.616;2023-08-06T09:51:44;0.97;;;0.80;;
7719;SDS011;3902;49.474;8.616;2023-08-06T09:54:13;0.83;;;0.80;;
7719;SDS011;3902;49.474;8.616;2023-08-06T09:56:41;1.17;;;0.90;;
7719;SDS011;3902;49.474;8.616;2023-08-06T09:59:08;1.93;;;0.90;;
7719;SDS011;3902;49.474;8.616;2023-08-06T10:01:34;1.40;;;1.03;;
7719;SDS011;3902;49.474;8.616;2023-08-06T10:04:05;2.47;;;1.23;;
7719;SDS011;3902;49.474;8.616;2023-08-06T10:06:35;0.77;;;0.73;;
7719;SDS011;3902;49.474;8.616;2023-08-06T10:09:01;1.00;;;0.87;;
7719;SDS011;3902;49.474;8.616;2023-08-06T10:11:28;0.87;;;0.83;;
7719;SDS011;3902;49.474;8.616;2023-08-06T10:13:55;1.83;;;0.90;;
7719;SDS011;3902;49.474;8.616;2023-08-06T10:16:34;1.07;;;0.97;;
7719;SDS011;3902;49.474;8.616;2023-08-06T10:19:01;0.90;;;0.90;;
7719;SDS011;3902;49.474;8.616;2023-08-06T10:21:30;0.83;;;0.83;;
7719;SDS011;3902;49.474;8.616;2023-08-06T10:23:56;1.10;;;0.90;;
7719;SDS011;3902;49.474;8.616;2023-08-06T10:26:28;0.70;;;0.70;;
7719;SDS011;3902;49.474;8.616;2023-08-06T10:28:54;0.90;;;0.90;;
7719;SDS011;3902;49.474;8.616;2023-08-06T10:31:20;1.50;;;1.03;;
7719;SDS011;3902;49.474;8.616;2023-08-06T10:34:05;2.47;;;0.93;;
7719;SDS011;3902;49.474;8.616;2023-08-06T10:36:32;0.90;;;0.73;;
7719;SDS011;3902;49.474;8.616;2023-08-06T10:38:58;2.53;;;0.97;;
7719;SDS011;3902;49.474;8.616;2023-08-06T10:41:29;0.90;;;0.80;;
7719;SDS011;3902;49.474;8.616;2023-08-06T10:44:07;1.20;;;1.00;;
7719;SDS011;3902;49.474;8.616;2023-08-06T10:46:34;0.80;;;0.80;;
7719;SDS011;3902;49.474;8.616;2023-08-06T10:49:00;1.10;;;1.00;;
7719;SDS011;3902;49.474;8.616;2023-08-06T10:51:26;0.93;;;0.87;;
7719;SDS011;3902;49.474;8.616;2023-08-06T10:53:52;1.50;;;0.93;;
7719;SDS011;3902;49.474;8.616;2023-08-06T10:56:19;1.60;;;1.00;;
7719;SDS011;3902;49.474;8.616;2023-08-06T10:58:51;1.30;;;1.20;;
7719;SDS011;3902;49.474;8.616;2023-08-06T11:01:18;1.00;;;0.90;;
7719;SDS011;3902;49.474;8.616;2023-08-06T11:03:45;1.60;;;1.00;;
7719;SDS011;3902;49.474;8.616;2023-08-06T11:06:16;1.00;;;0.90;;
7719;SDS011;3902;49.474;8.616;2023-08-06T11:08:47;2.20;;;1.00;;
7719;SDS011;3902;49.474;8.616;2023-08-06T11:11:17;1.10;;;0.90;;
7719;SDS011;3902;49.474;8.616;2023-08-06T11:13:44;1.10;;;1.00;;
7719;SDS011;3902;49.474;8.616;2023-08-06T11:16:12;1.53;;;1.23;;
7719;SDS011;3902;49.474;8.616;2023-08-06T11:18:42;1.50;;;1.10;;
7719;SDS011;3902;49.474;8.616;2023-08-06T11:21:08;0.90;;;0.90;;
7719;SDS011;3902;49.474;8.616;2023-08-06T11:23:35;1.10;;;1.00;;
7719;SDS011;3902;49.474;8.616;2023-08-06T11:26:01;1.10;;;1.00;;
7719;SDS011;3902;49.474;8.616;2023-08-06T11:28:27;0.90;;;0.90;;
7719;SDS011;3902;49.474;8.616;2023-08-06T11:30:52;1.80;;;1.10;;
7719;SDS011;3902;49.474;8.616;2023-08-06T11:33:20;1.00;;;0.90;;
7719;SDS011;3902;49.474;8.616;2023-08-06T11:35:47;1.43;;;1.10;;
7719;SDS011;3902;49.474;8.616;2023-08-06T11:38:14;1.10;;;1.00;;
7719;SDS011;3902;49.474;8.616;2023-08-06T11:40:41;1.40;;;1.20;;
7719;SDS011;3902;49.474;8.616;2023-08-06T11:43:08;0.90;;;0.90;;
7719;SDS011;3902;49.474;8.616;2023-08-06T11:45:37;1.20;;;1.10;;
7719;SDS011;3902;49.474;8.616;2023-08-06T11:48:02;1.30;;;1.10;;
7719;SDS011;3902;49.474;8.616;2023-08-06T11:50:29;1.20;;;1.10;;
7719;SDS011;3902;49.474;8.616;2023-08-06T11:52:59;1.13;;;1.03;;
7719;SDS011;3902;49.474;8.616;2023-08-06T11:55:25;1.40;;;1.20;;
7719;SDS011;3902;49.474;8.616;2023-08-06T11:57:53;2.43;;;1.20;;
7719;SDS011;3902;49.474;8.616;2023-08-06T12:00:19;1.30;;;1.20;;
7719;SDS011;3902;49.474;8.616;2023-08-06T12:02:48;1.47;;;1.27;;
7719;SDS011;3902;49.474;8.616;2023-08-06T12:05:16;2.20;;;1.30;;
7719;SDS011;3902;49.474;8.616;2023-08-06T12:07:49;1.20;;;1.10;;
7719;SDS011;3902;49.474;8.616;2023-08-06T12:10:16;4.27;;;1.20;;
7719;SDS011;3902;49.474;8.616;2023-08-06T12:12:46;1.40;;;1.30;;
7719;SDS011;3902;49.474;8.616;2023-08-06T12:15:13;2.10;;;1.50;;
7719;SDS011;3902;49.474;8.616;2023-08-06T12:17:39;1.83;;;1.40;;
7719;SDS011;3902;49.474;8.616;2023-08-06T12:20:05;1.67;;;1.40;;
7719;SDS011;3902;49.474;8.616;2023-08-06T12:22:32;1.40;;;1.30;;
7719;SDS011;3902;49.474;8.616;2023-08-06T12:25:00;2.00;;;1.67;;
7719;SDS011;3902;49.474;8.616;2023-08-06T12:27:32;1.43;;;1.33;;
7719;SDS011;3902;49.474;8.616;2023-08-06T12:30:02;3.53;;;1.80;;
7719;SDS011;3902;49.474;8.616;2023-08-06T12:32:28;1.67;;;1.40;;
7719;SDS011;3902;49.474;8.616;2023-08-06T12:34:54;2.00;;;1.70;;
7719;SDS011;3902;49.474;8.616;2023-08-06T12:37:20;2.23;;;1.50;;
7719;SDS011;3902;49.474;8.616;2023-08-06T12:39:46;1.37;;;1.27;;
7719;SDS011;3902;49.474;8.616;2023-08-06T12:42:11;1.60;;;1.50;;
7719;SDS011;3902;49.474;8.616;2023-08-06T12:44:37;2.17;;;1.53;;
7719;SDS011;3902;49.474;8.616;2023-08-06T12:47:03;3.13;;;1.50;;
7719;SDS011;3902;49.474;8.616;2023-08-06T12:49:28;2.30;;;1.60;;
7719;SDS011;3902;49.474;8.616;2023-08-06T12:51:55;2.70;;;1.50;;
7719;SDS011;3902;49.474;8.616;2023-08-06T12:54:21;1.73;;;1.60;;
7719;SDS011;3902;49.474;8.616;2023-08-06T12:56:48;1.30;;;1.20;;
7719;SDS011;3902;49.474;8.616;2023-08-06T12:59:14;1.50;;;1.40;;
7719;SDS011;3902;49.474;8.616;2023-08-06T13:04:29;1.17;;;1.07;;
7719;SDS011;3902;49.474;8.616;2023-08-06T13:06:54;1.63;;;1.23;;
7719;SDS011;3902;49.474;8.616;2023-08-06T13:09:20;5.30;;;1.47;;
7719;SDS011;3902;49.474;8.616;2023-08-06T13:11:45;1.27;;;1.17;;
7719;SDS011;3902;49.474;8.616;2023-08-06T13:14:12;1.40;;;1.30;;
7719;SDS011;3902;49.474;8.616;2023-08-06T13:16:40;1.20;;;1.10;;
7719;SDS011;3902;49.474;8.616;2023-08-06T13:19:07;1.37;;;1.20;;
7719;SDS011;3902;49.474;8.616;2023-08-06T13:24:10;1.83;;;1.20;;
7719;SDS011;3902;49.474;8.616;2023-08-06T13:26:36;1.50;;;1.40;;
7719;SDS011;3902;49.474;8.616;2023-08-06T13:29:01;1.30;;;1.20;;
7719;SDS011;3902;49.474;8.616;2023-08-06T13:31:27;1.33;;;1.23;;
7719;SDS011;3902;49.474;8.616;2023-08-06T13:33:56;1.23;;;1.10;;
7719;SDS011;3902;49.474;8.616;2023-08-06T13:36:23;2.33;;;1.50;;
7719;SDS011;3902;49.474;8.616;2023-08-06T13:38:49;1.60;;;1.10;;
7719;SDS011;3902;49.474;8.616;2023-08-06T13:41:15;2.53;;;1.27;;
7719;SDS011;3902;49.474;8.616;2023-08-06T13:43:41;1.27;;;1.17;;
7719;SDS011;3902;49.474;8.616;2023-08-06T13:46:07;1.27;;;1.10;;
7719;SDS011;3902;49.474;8.616;2023-08-06T13:48:32;1.80;;;1.40;;
7719;SDS011;3902;49.474;8.616;2023-08-06T13:50:58;2.23;;;1.43;;
7719;SDS011;3902;49.474;8.616;2023-08-06T13:53:23;1.50;;;1.03;;
7719;SDS011;3902;49.474;8.616;2023-08-06T13:55:50;2.10;;;1.30;;
7719;SDS011;3902;49.474;8.616;2023-08-06T13:58:15;2.10;;;1.40;;
7719;SDS011;3902;49.474;8.616;2023-08-06T14:00:41;2.70;;;1.33;;
7719;SDS011;3902;49.474;8.616;2023-08-06T14:03:06;1.77;;;1.20;;
7719;SDS011;3902;49.474;8.616;2023-08-06T14:05:33;1.47;;;1.37;;
7719;SDS011;3902;49.474;8.616;2023-08-06T14:07:59;1.40;;;1.20;;
7719;SDS011;3902;49.474;8.616;2023-08-06T14:10:24;1.33;;;1.23;;
7719;SDS011;3902;49.474;8.616;2023-08-06T14:12:50;1.30;;;1.10;;
7719;SDS011;3902;49.474;8.616;2023-08-06T14:15:15;1.30;;;1.20;;
7719;SDS011;3902;49.474;8.616;2023-08-06T14:17:41;2.23;;;1.30;;
7719;SDS011;3902;49.474;8.616;2023-08-06T14:20:06;1.37;;;1.17;;
7719;SDS011;3902;49.474;8.616;2023-08-06T14:22:34;1.60;;;1.17;;
7719;SDS011;3902;49.474;8.616;2023-08-06T14:24:59;1.77;;;1.30;;
7719;SDS011;3902;49.474;8.616;2023-08-06T14:27:25;1.63;;;1.13;;
7719;SDS011;3902;49.474;8.616;2023-08-06T14:29:51;1.43;;;1.10;;
7719;SDS011;3902;49.474;8.616;2023-08-06T14:32:16;1.93;;;1.30;;
7719;SDS011;3902;49.474;8.616;2023-08-06T14:34:46;2.50;;;1.33;;
7719;SDS011;3902;49.474;8.616;2023-08-06T14:37:11;1.50;;;1.40;;
7719;SDS011;3902;49.474;8.616;2023-08-06T14:39:37;1.70;;;1.23;;
7719;SDS011;3902;49.474;8.616;2023-08-06T14:42:05;1.40;;;1.23;;
7719;SDS011;3902;49.474;8.616;2023-08-06T14:44:31;1.90;;;1.20;;
7719;SDS011;3902;49.474;8.616;2023-08-06T14:46:56;1.83;;;1.37;;
7719;SDS011;3902;49.474;8.616;2023-08-06T14:49:22;1.77;;;1.30;;
7719;SDS011;3902;49.474;8.616;2023-08-06T14:51:48;1.50;;;1.30;;
7719;SDS011;3902;49.474;8.616;2023-08-06T14:54:14;1.77;;;1.27;;
7719;SDS011;3902;49.474;8.616;2023-08-06T14:56:39;2.27;;;1.30;;
7719;SDS011;3902;49.474;8.616;2023-08-06T14:59:05;1.50;;;1.30;;
7719;SDS011;3902;49.474;8.616;2023-08-06T15:01:30;3.83;;;1.20;;
7719;SDS011;3902;49.474;8.616;2023-08-06T15:03:56;1.37;;;1.17;;
7719;SDS011;3902;49.474;8.616;2023-08-06T15:06:21;1.50;;;1.37;;
7719;SDS011;3902;49.474;8.616;2023-08-06T15:08:47;2.60;;;1.57;;
7719;SDS011;3902;49.474;8.616;2023-08-06T15:11:13;1.20;;;1.10;;
7719;SDS011;3902;49.474;8.616;2023-08-06T15:13:39;1.20;;;1.00;;
7719;SDS011;3902;49.474;8.616;2023-08-06T15:16:05;1.80;;;1.40;;
7719;SDS011;3902;49.474;8.616;2023-08-06T15:18:30;1.90;;;1.60;;
7719;SDS011;3902;49.474;8.616;2023-08-06T15:20:56;1.20;;;1.10;;
7719;SDS011;3902;49.474;8.616;2023-08-06T15:23:22;1.90;;;1.30;;
7719;SDS011;3902;49.474;8.616;2023-08-06T15:25:48;2.60;;;1.23;;